Time;durP1;ratioP1;P1;durP2;ratioP2;P2;SDS_P1;SDS_P2;PMS_P1;PMS_P2;Temp;Humidity;BMP_temperature;BMP_pressure;BME280_temperature;BME280_humidity;BME280_pressure;Samples;Min_cycle;Max_cycle;Signal;HPM_P1;HPM_P2
2021/04/13 00:02:21;;;;;;;5.73;4.43;;;;;;;2.05;65.90;100108.16;5107614;28;41481;-72
2021/04/13 00:04:51;;;;;;;6.93;4.70;;;;;;;2.02;66.25;100113.38;5108217;27;42656;-73
2021/04/13 00:07:19;;;;;;;5.93;5.17;;;;;;;2.01;66.60;100118.63;5105479;28;42153;-73
2021/04/13 00:09:47;;;;;;;5.17;4.40;;;;;;;2.02;66.91;100115.13;5089660;28;40011;-73
2021/04/13 00:12:18;;;;;;;5.20;4.70;;;;;;;2.01;67.01;100116.00;5108630;27;41737;-73
2021/04/13 00:14:49;;;;;;;5.27;4.20;;;;;;;2.02;67.28;100112.53;5107080;28;42677;-72
2021/04/13 00:17:20;;;;;;;4.90;4.40;;;;;;;2.00;66.74;100109.91;5104431;28;42043;-73
2021/04/13 00:19:52;;;;;;;4.23;3.83;;;;;;;1.98;66.32;100116.88;5089620;28;38938;-73
2021/04/13 00:22:19;;;;;;;6.70;6.00;;;;;;;1.98;67.27;100110.84;5105865;28;41709;-73
2021/04/13 00:24:46;;;;;;;5.67;4.57;;;;;;;1.95;66.65;100122.16;5089700;28;41880;-74
2021/04/13 00:27:15;;;;;;;5.80;4.97;;;;;;;1.93;67.08;100112.59;5106884;28;42083;-72
2021/04/13 00:29:42;;;;;;;5.53;5.03;;;;;;;1.91;66.68;100114.34;5090193;28;40853;-73
2021/04/13 00:32:11;;;;;;;5.03;4.33;;;;;;;1.89;67.07;100105.66;5106367;27;41483;-73
2021/04/13 00:34:49;;;;;;;6.33;5.40;;;;;;;1.88;67.16;100103.91;5112205;27;42700;-72
2021/04/13 00:37:24;;;;;;;5.47;4.80;;;;;;;1.86;67.08;100105.66;5110989;27;42000;-73
2021/04/13 00:39:52;;;;;;;5.77;4.63;;;;;;;1.80;66.89;100102.25;5110789;27;40577;-73
2021/04/13 00:42:26;;;;;;;5.50;4.93;;;;;;;1.83;67.24;100111.81;5110722;27;41391;-73
2021/04/13 00:44:57;;;;;;;5.73;5.23;;;;;;;1.83;67.86;100106.59;5110239;28;42974;-72
2021/04/13 00:47:28;;;;;;;5.40;4.90;;;;;;;1.83;67.69;100105.72;5108551;28;42132;-73
2021/04/13 00:49:57;;;;;;;5.27;4.77;;;;;;;1.81;67.13;100110.94;5110474;27;39858;-72
2021/04/13 00:52:34;;;;;;;8.17;6.23;;;;;;;1.74;67.15;100102.25;5108169;28;42369;-74
2021/04/13 00:55:04;;;;;;;5.13;4.50;;;;;;;1.77;67.00;100115.31;5110142;28;42615;-72
2021/04/13 00:57:37;;;;;;;4.40;4.00;;;;;;;1.77;67.41;100114.44;5111522;27;42871;-73
2021/04/13 01:00:07;;;;;;;5.43;4.93;;;;;;;1.72;67.24;100114.50;5111218;27;39959;-73
2021/04/13 01:02:35;;;;;;;5.17;4.67;;;;;;;1.71;66.96;100117.13;5110828;27;41535;-72
2021/04/13 01:05:10;;;;;;;4.97;4.20;;;;;;;1.67;66.71;100115.38;5111389;27;41989;-72
2021/04/13 01:07:39;;;;;;;5.00;4.50;;;;;;;1.63;66.61;100109.31;5122561;27;42724;-72
2021/04/13 01:10:11;;;;;;;5.23;4.73;;;;;;;1.61;66.82;100121.50;5091227;28;40007;-72
2021/04/13 01:12:40;;;;;;;5.83;5.10;;;;;;;1.48;66.32;100104.22;5106755;28;41624;-72
2021/04/13 01:15:12;;;;;;;5.87;4.53;;;;;;;1.54;66.49;100119.81;5109328;28;41790;-72
2021/04/13 01:17:42;;;;;;;4.63;4.13;;;;;;;1.47;66.39;100118.13;5111145;27;42153;-72
2021/04/13 01:20:17;;;;;;;5.07;4.57;;;;;;;1.49;66.43;100121.56;5108774;28;40702;-73
2021/04/13 01:22:53;;;;;;;7.20;4.80;;;;;;;1.38;66.18;100113.81;5107984;28;42442;-72
2021/04/13 01:25:23;;;;;;;5.47;4.67;;;;;;;1.36;65.98;100114.72;5106665;28;41584;-73
2021/04/13 01:27:53;;;;;;;7.30;5.30;;;;;;;1.35;66.03;100126.03;5108875;28;42613;-73
2021/04/13 01:30:24;;;;;;;6.40;4.43;;;;;;;1.34;66.02;100126.91;5109462;27;39716;-72
2021/04/13 01:32:52;;;;;;;5.33;4.83;;;;;;;1.29;66.08;100128.66;5109794;27;42421;-72
2021/04/13 01:35:30;;;;;;;5.63;4.87;;;;;;;1.26;66.14;100133.88;5107226;28;42513;-72
2021/04/13 01:38:03;;;;;;;6.10;4.30;;;;;;;1.22;65.99;100129.56;5109752;27;42981;-73
2021/04/13 01:40:41;;;;;;;6.27;4.37;;;;;;;1.22;66.12;100138.28;5110064;27;39763;-72
2021/04/13 01:43:08;;;;;;;5.50;4.87;;;;;;;1.19;66.19;100132.19;5092067;28;41874;-72
2021/04/13 01:45:37;;;;;;;4.47;3.83;;;;;;;1.19;66.05;100132.19;5107288;28;43772;-73
2021/04/13 01:48:08;;;;;;;6.03;4.67;;;;;;;1.11;66.07;100134.84;5110544;27;43016;-72
2021/04/13 01:50:37;;;;;;;4.93;4.47;;;;;;;1.15;65.98;100140.88;5108727;27;40830;-73
2021/04/13 01:53:08;;;;;;;6.73;5.00;;;;;;;1.13;66.13;100142.63;5108177;28;41652;-73
2021/04/13 01:55:37;;;;;;;6.87;5.13;;;;;;;1.10;65.90;100145.28;5109600;27;42399;-73
2021/04/13 01:58:18;;;;;;;5.43;4.87;;;;;;;1.06;66.01;100150.50;5110072;27;42896;-73
2021/04/13 02:00:49;;;;;;;5.87;4.47;;;;;;;1.05;65.99;100148.75;5105763;28;39859;-73
2021/04/13 02:03:24;;;;;;;5.90;4.87;;;;;;;1.02;65.83;100151.38;5092318;28;40992;-73
2021/04/13 02:05:57;;;;;;;5.53;4.90;;;;;;;1.01;65.91;100152.25;5109335;27;43489;-73
2021/04/13 02:08:30;;;;;;;5.03;4.53;;;;;;;0.99;65.92;100151.38;5106558;28;42613;-73
2021/04/13 02:11:03;;;;;;;5.03;4.53;;;;;;;0.96;65.89;100154.00;5105804;28;40171;-73
2021/04/13 02:13:53;;;;;;;4.40;4.00;;;;;;;0.98;66.03;100160.09;5106869;28;40609;-73
2021/04/13 02:16:25;;;;;;;5.83;5.23;;;;;;;0.97;66.03;100163.56;5109836;27;42511;-73
2021/04/13 02:18:54;;;;;;;4.93;4.40;;;;;;;0.97;66.20;100163.56;5108654;28;42628;-73
2021/04/13 02:21:28;;;;;;;6.83;5.40;;;;;;;0.96;66.20;100156.63;5109254;27;40462;-73
2021/04/13 02:23:59;;;;;;;5.47;4.90;;;;;;;0.94;66.19;100158.34;5108735;27;42360;-73
2021/04/13 02:26:29;;;;;;;6.10;5.33;;;;;;;0.94;66.26;100163.56;5108354;28;42657;-73
2021/04/13 02:28:58;;;;;;;5.90;5.30;;;;;;;0.91;66.22;100153.16;5110242;27;42959;-73
2021/04/13 02:31:47;;;;;;;5.43;4.93;;;;;;;0.91;66.31;100158.34;5108692;27;40624;-73
2021/04/13 02:34:18;;;;;;;4.90;4.40;;;;;;;0.90;66.17;100151.41;5108343;28;41749;-73
2021/04/13 02:36:49;;;;;;;5.03;4.57;;;;;;;0.87;66.07;100161.84;5108977;27;43309;-72
2021/04/13 02:39:40;;;;;;;7.07;6.10;;;;;;;0.86;66.22;100154.91;5094391;28;41050;-73
2021/04/13 02:42:13;;;;;;;5.33;4.83;;;;;;;0.85;66.48;100158.41;5108674;27;39627;-73
2021/04/13 02:44:41;;;;;;;4.90;4.40;;;;;;;0.83;66.54;100160.13;5108445;28;41408;-73
2021/04/13 02:47:13;;;;;;;8.10;6.40;;;;;;;0.80;66.57;100157.53;5108332;28;41667;-73
2021/04/13 02:49:42;;;;;;;6.33;5.10;;;;;;;0.79;66.67;100168.81;5104452;28;40947;-72
2021/04/13 02:52:16;;;;;;;6.67;5.67;;;;;;;0.73;66.79;100158.44;5107224;28;39595;-73
2021/04/13 02:54:48;;;;;;;7.13;5.83;;;;;;;0.76;66.78;100166.22;5107435;28;42356;-73
2021/04/13 02:57:20;;;;;;;5.87;5.20;;;;;;;0.74;66.97;100167.97;5106730;28;42257;-73
2021/04/13 02:59:47;;;;;;;7.33;6.20;;;;;;;0.72;66.70;100172.31;5091188;28;42272;-73
2021/04/13 03:02:24;;;;;;;5.50;5.00;;;;;;;0.70;66.73;100168.84;5108037;28;39919;-73
2021/04/13 03:04:54;;;;;;;7.53;6.50;;;;;;;0.66;66.80;100173.19;5106231;28;42315;-72
2021/04/13 03:07:24;;;;;;;7.47;6.03;;;;;;;0.65;66.73;100175.78;5105802;28;41924;-72
2021/04/13 03:09:54;;;;;;;7.07;6.37;;;;;;;0.63;66.73;100178.41;5090960;28;41744;-73
2021/04/13 03:12:22;;;;;;;11.90;7.03;;;;;;;0.63;66.68;100167.09;5108025;28;40442;-73
2021/04/13 03:14:55;;;;;;;8.10;6.73;;;;;;;0.61;66.73;100174.09;5108474;27;42353;-73
2021/04/13 03:17:25;;;;;;;6.97;6.27;;;;;;;0.58;66.67;100174.09;5106468;27;41691;-74
2021/04/13 03:20:01;;;;;;;6.77;6.07;;;;;;;0.56;66.80;100181.03;5107141;28;42104;-73
2021/04/13 03:22:30;;;;;;;8.10;6.57;;;;;;;0.50;66.78;100178.41;5108049;28;39657;-73
2021/04/13 03:24:58;;;;;;;8.20;6.60;;;;;;;0.51;66.95;100180.16;5108242;27;41872;-73
2021/04/13 03:27:29;;;;;;;10.13;6.97;;;;;;;0.37;67.08;100161.94;5107909;27;42252;-73
2021/04/13 03:30:02;;;;;;;6.13;5.53;;;;;;;0.43;67.11;100172.34;5107845;27;42590;-73
2021/04/13 03:32:33;;;;;;;6.83;6.13;;;;;;;0.38;67.03;100170.59;5106902;27;40639;-72
2021/04/13 03:35:05;;;;;;;6.73;6.03;;;;;;;0.37;67.27;100174.97;5107657;27;42143;-73
2021/04/13 03:37:33;;;;;;;7.60;6.57;;;;;;;0.33;67.47;100181.91;5108388;27;42616;-73
2021/04/13 03:40:05;;;;;;;9.17;7.77;;;;;;;0.24;67.55;100165.44;5104444;28;42229;-73
2021/04/13 03:42:35;;;;;;;7.90;6.30;;;;;;;0.31;68.53;100178.44;5107283;27;40613;-73
2021/04/13 03:45:05;;;;;;;8.40;6.80;;;;;;;0.29;68.97;100172.34;5107702;28;42210;-72
2021/04/13 03:47:37;;;;;;;11.33;8.07;;;;;;;0.33;69.18;100179.31;5107738;27;42679;-72
2021/04/13 03:50:09;;;;;;;10.47;7.77;;;;;;;0.35;68.90;100181.91;5105736;28;42121;-72
2021/04/13 03:52:36;;;;;;;8.77;7.60;;;;;;;0.29;68.88;100166.28;5106518;27;39655;-72
2021/04/13 03:55:13;;;;;;;10.67;8.17;;;;;;;0.35;68.94;100182.78;5107822;28;42435;-72
2021/04/13 03:57:40;;;;;;;8.43;7.57;;;;;;;0.28;68.73;100167.13;5106999;28;43178;-73
2021/04/13 04:00:12;;;;;;;10.97;9.40;;;;;;;0.32;68.62;100182.78;5089498;28;40732;-72
2021/04/13 04:02:40;;;;;;;8.23;7.13;;;;;;;0.30;68.73;100183.66;5106382;28;40414;-72
2021/04/13 04:05:12;;;;;;;8.30;6.87;;;;;;;0.22;68.90;100167.16;5089843;28;41775;-72
2021/04/13 04:07:44;;;;;;;10.47;9.00;;;;;;;0.31;68.86;100188.84;5107224;27;43202;-72
2021/04/13 04:10:33;;;;;;;9.40;8.43;;;;;;;0.30;68.99;100194.94;5111001;27;41800;-73
2021/04/13 04:13:03;;;;;;;9.90;7.73;;;;;;;0.27;68.66;100192.31;5109705;28;40674;-73
2021/04/13 04:15:37;;;;;;;9.13;8.07;;;;;;;0.23;68.60;100198.41;5110488;28;40811;-73
2021/04/13 04:18:12;;;;;;;10.23;9.07;;;;;;;0.22;68.45;100201.91;5107196;28;42412;-73
2021/04/13 04:20:40;;;;;;;7.97;7.17;;;;;;;0.21;68.41;100204.50;5110848;27;42161;-72
2021/04/13 04:23:08;;;;;;;8.60;7.70;;;;;;;0.19;68.50;100212.31;5110587;28;40191;-73
2021/04/13 04:25:39;;;;;;;11.70;8.73;;;;;;;0.18;68.52;100215.78;5140407;27;41817;-73
2021/04/13 04:28:15;;;;;;;9.23;8.20;;;;;;;0.16;68.45;100217.50;5073446;28;42359;-73
2021/04/13 04:30:42;;;;;;;11.23;9.40;;;;;;;0.01;68.43;100196.63;5095546;28;41941;-73
2021/04/13 04:33:34;;;;;;;11.67;8.57;;;;;;;0.12;68.74;100215.78;5109552;28;40046;-73
2021/04/13 04:36:03;;;;;;;9.93;7.90;;;;;;;0.12;68.72;100220.13;5115561;27;41240;-73
2021/04/13 04:38:31;;;;;;;9.00;7.40;;;;;;;0.01;68.82;100209.66;5110699;27;42498;-73
2021/04/13 04:41:02;;;;;;;10.03;8.93;;;;;;;0.06;68.96;100210.53;5103573;28;41318;-73
2021/04/13 04:43:57;;;;;;;9.13;7.93;;;;;;;0.11;68.97;100219.25;5107373;27;40395;-73
2021/04/13 04:46:39;;;;;;;9.17;8.23;;;;;;;0.13;69.05;100224.44;5106551;28;41655;-72
2021/04/13 04:49:10;;;;;;;10.73;8.13;;;;;;;0.14;69.16;100229.66;5109246;28;42682;-73
2021/04/13 04:51:37;;;;;;;9.30;8.00;;;;;;;0.16;68.81;100229.66;5128137;27;43308;-72
2021/04/13 04:54:06;;;;;;;10.03;8.00;;;;;;;0.17;68.89;100234.88;5089365;28;40386;-72
2021/04/13 04:56:33;;;;;;;8.77;7.33;;;;;;;0.18;68.86;100236.63;5091455;28;42530;-72
2021/04/13 04:59:00;;;;;;;9.67;8.10;;;;;;;0.13;69.05;100220.09;5089601;28;42565;-72
2021/04/13 05:01:28;;;;;;;9.10;7.43;;;;;;;0.24;68.82;100236.63;5089977;28;42085;-72
2021/04/13 05:03:55;;;;;;;8.60;7.70;;;;;;;0.26;68.66;100242.69;5122595;27;39565;-72
2021/04/13 05:06:24;;;;;;;12.40;8.50;;;;;;;0.30;68.54;100238.34;5090314;28;40956;-71
2021/04/13 05:08:52;;;;;;;11.60;9.23;;;;;;;0.31;68.47;100240.97;5072483;28;42749;-71
2021/04/13 05:11:19;;;;;;;12.27;9.20;;;;;;;0.37;68.50;100247.06;5090740;28;41956;-71
2021/04/13 05:13:46;;;;;;;11.80;8.47;;;;;;;0.43;68.60;100247.94;5091741;28;39944;-71
2021/04/13 05:16:13;;;;;;;10.57;9.47;;;;;;;0.50;68.56;100251.38;5089169;28;42194;-71
2021/04/13 05:18:40;;;;;;;10.67;9.57;;;;;;;0.54;68.76;100250.53;5090401;28;43258;-71
2021/04/13 05:21:07;;;;;;;11.37;9.83;;;;;;;0.62;68.83;100254.00;5096188;28;42196;-72
2021/04/13 05:23:35;;;;;;;13.00;10.93;;;;;;;0.66;69.35;100247.91;5109142;28;40059;-71
2021/04/13 05:26:04;;;;;;;12.10;10.17;;;;;;;0.85;69.32;100251.41;5110573;27;42184;-71
2021/04/13 05:28:32;;;;;;;11.33;9.30;;;;;;;1.05;68.98;100253.09;5093238;28;41849;-71
2021/04/13 05:30:59;;;;;;;10.87;9.50;;;;;;;1.22;68.61;100247.84;5110389;27;42355;-72
2021/04/13 05:33:27;;;;;;;10.90;9.27;;;;;;;1.35;68.48;100256.53;5108853;28;40447;-72
2021/04/13 05:35:54;;;;;;;11.67;10.27;;;;;;;1.41;68.40;100265.19;5108482;28;41727;-71
2021/04/13 05:38:27;;;;;;;9.67;8.67;;;;;;;1.45;68.41;100260.84;5110166;27;42689;-71
2021/04/13 05:40:57;;;;;;;10.13;8.87;;;;;;;1.53;68.39;100274.72;5091694;28;41078;-71
2021/04/13 05:43:24;;;;;;;10.93;8.80;;;;;;;1.61;68.20;100275.56;5109732;27;40743;-71
2021/04/13 05:45:52;;;;;;;10.97;9.43;;;;;;;1.65;68.27;100274.69;5110599;27;41675;-71
2021/04/13 05:48:20;;;;;;;12.33;9.23;;;;;;;1.70;68.27;100270.31;5108471;28;42255;-70
2021/04/13 05:50:47;;;;;;;12.03;9.73;;;;;;;1.76;68.37;100282.47;5109768;27;42841;-71
2021/04/13 05:53:15;;;;;;;10.93;9.77;;;;;;;1.85;68.38;100284.19;5110892;27;40771;-71
2021/04/13 05:55:42;;;;;;;13.30;11.20;;;;;;;1.91;68.46;100286.75;5108480;28;42323;-71
2021/04/13 05:58:15;;;;;;;11.83;9.87;;;;;;;1.89;68.32;100275.44;5108855;28;43153;-72
2021/04/13 06:00:43;;;;;;;12.57;10.83;;;;;;;2.02;68.22;100291.06;5108858;28;41455;-72
2021/04/13 06:03:14;;;;;;;13.97;10.47;;;;;;;2.18;68.00;100297.06;5110308;27;40194;-72
2021/04/13 06:05:41;;;;;;;11.80;9.93;;;;;;;2.49;67.39;100298.59;5109897;27;41696;-71
2021/04/13 06:08:10;;;;;;;11.63;10.17;;;;;;;2.89;66.47;100300.94;5087843;28;41694;-71
2021/04/13 06:10:37;;;;;;;11.27;9.50;;;;;;;3.20;66.06;100305.03;5104904;27;42107;-70
2021/04/13 06:13:05;;;;;;;13.30;11.23;;;;;;;3.35;65.87;100308.34;5091106;28;39772;-71
2021/04/13 06:15:34;;;;;;;11.10;9.93;;;;;;;3.45;65.71;100310.00;5109195;27;41179;-71
2021/04/13 06:18:01;;;;;;;11.77;10.47;;;;;;;3.66;65.52;100304.53;5109200;27;43388;-71
2021/04/13 06:20:30;;;;;;;11.87;9.43;;;;;;;4.15;65.09;100311.78;5107341;28;42058;-71
2021/04/13 06:22:58;;;;;;;10.30;9.03;;;;;;;4.56;64.17;100313.84;5110266;27;40368;-71
2021/04/13 06:25:27;;;;;;;11.80;9.23;;;;;;;4.90;63.92;100317.66;5107091;28;43156;-70
2021/04/13 06:27:55;;;;;;;9.30;8.40;;;;;;;5.12;63.46;100319.94;5107186;27;42743;-71
2021/04/13 06:30:25;;;;;;;10.07;8.97;;;;;;;5.24;63.10;100317.97;5107670;27;42874;-72
2021/04/13 06:32:54;;;;;;;10.07;9.10;;;;;;;5.22;62.80;100325.00;5109834;27;39770;-72
2021/04/13 06:35:22;;;;;;;10.47;9.47;;;;;;;5.19;62.82;100319.81;5108263;27;42297;-71
2021/04/13 06:37:51;;;;;;;11.37;9.87;;;;;;;5.16;63.11;100325.13;5108117;27;42713;-72
2021/04/13 06:40:33;;;;;;;10.20;9.30;;;;;;;5.14;62.83;100316.41;5105005;27;42291;-72
2021/04/13 06:43:11;;;;;;;11.00;9.40;;;;;;;5.17;62.72;100318.97;5106818;28;40677;-72
2021/04/13 06:45:52;;;;;;;11.20;10.00;;;;;;;5.20;62.83;100325.91;5108227;27;42531;-72
2021/04/13 06:48:51;;;;;;;11.47;10.23;;;;;;;5.26;62.55;100325.81;5109117;27;43298;-71
2021/04/13 06:51:27;;;;;;;10.57;9.47;;;;;;;5.35;62.19;100320.41;5086748;28;42729;-74
2021/04/13 06:54:06;;;;;;;11.40;10.30;;;;;;;5.50;61.91;100319.25;5072634;28;39012;-73
2021/04/13 06:57:02;;;;;;;11.20;10.10;;;;;;;5.62;61.47;100324.28;5107723;28;40146;-72
2021/04/13 07:00:01;;;;;;;10.70;9.37;;;;;;;5.70;61.87;100325.00;5108343;27;43151;-72
2021/04/13 07:02:35;;;;;;;10.83;9.73;;;;;;;5.77;61.16;100324.00;5109075;27;42029;-73
2021/04/13 07:05:07;;;;;;;10.20;9.20;;;;;;;5.86;60.97;100329.06;5108921;27;41701;-72
2021/04/13 07:07:39;;;;;;;11.03;9.97;;;;;;;6.09;61.03;100332.13;5109280;27;42275;-72
2021/04/13 07:10:18;;;;;;;10.83;9.73;;;;;;;6.45;60.47;100332.22;5106550;28;42726;-72
2021/04/13 07:12:50;;;;;;;9.87;8.73;;;;;;;6.74;58.55;100348.25;5107302;28;42397;-73
2021/04/13 07:15:24;;;;;;;10.73;9.70;;;;;;;7.08;57.84;100348.28;5106697;28;39900;-73
2021/04/13 07:17:58;;;;;;;11.60;10.30;;;;;;;7.92;56.75;100351.34;5107553;28;41695;-72
2021/04/13 07:20:31;;;;;;;9.63;8.77;;;;;;;9.14;54.08;100367.06;5107567;27;42950;-73
2021/04/13 07:23:03;;;;;;;10.33;9.27;;;;;;;10.13;50.55;100384.81;5108718;27;42847;-72
2021/04/13 07:25:33;;;;;;;8.93;8.13;;;;;;;10.55;48.32;100398.25;5107904;27;39590;-72
2021/04/13 07:28:04;;;;;;;9.33;8.43;;;;;;;10.67;48.92;100386.31;5108020;27;41698;-71
2021/04/13 07:30:39;;;;;;;9.33;8.43;;;;;;;10.87;49.49;100375.84;5106313;28;43490;-72
2021/04/13 07:33:12;;;;;;;9.23;8.33;;;;;;;11.14;49.82;100373.84;5106651;28;42330;-72
2021/04/13 07:35:40;;;;;;;8.87;8.03;;;;;;;11.71;46.56;100389.16;5107906;27;39842;-72
2021/04/13 07:38:12;;;;;;;9.47;8.57;;;;;;;12.49;44.28;100410.47;5090464;28;41008;-72
2021/04/13 07:40:43;;;;;;;8.50;7.80;;;;;;;13.28;43.87;100408.53;5108040;27;42487;-73
2021/04/13 07:43:20;;;;;;;10.70;9.70;;;;;;;14.23;41.26;100407.22;5109007;27;42447;-73
2021/04/13 07:45:57;;;;;;;7.83;7.13;;;;;;;15.05;39.81;100416.97;5112150;27;40687;-74
2021/04/13 07:48:36;;;;;;;6.37;5.77;;;;;;;15.48;38.19;100424.34;5110171;28;42072;-72
2021/04/13 07:51:17;;;;;;;5.87;5.37;;;;;;;16.29;36.62;100434.66;5111752;27;43454;-73
2021/04/13 07:53:57;;;;;;;5.73;5.10;;;;;;;17.03;36.04;100436.31;5109839;28;41941;-73
2021/04/13 07:56:35;;;;;;;5.30;4.80;;;;;;;17.43;32.78;100454.16;5108582;27;39714;-73
2021/04/13 07:59:07;;;;;;;5.57;5.17;;;;;;;18.10;32.05;100449.72;5107983;28;41760;-73
2021/04/13 08:01:35;;;;;;;5.30;4.90;;;;;;;18.68;31.91;100445.69;5109221;28;43284;-73
2021/04/13 08:04:02;;;;;;;5.27;4.87;;;;;;;18.68;31.34;100453.72;5110639;27;42227;-73
2021/04/13 08:06:48;;;;;;;4.57;4.10;;;;;;;17.76;29.89;100459.16;5111499;27;39949;-75
2021/04/13 08:09:37;;;;;;;3.57;3.13;;;;;;;17.58;30.04;100461.19;5092953;28;40832;-74
2021/04/13 08:12:11;;;;;;;3.60;3.10;;;;;;;16.80;30.94;100457.34;5103534;28;42695;-73
2021/04/13 08:14:41;;;;;;;3.73;3.43;;;;;;;16.04;31.06;100451.31;5110740;27;41923;-73
2021/04/13 08:17:13;;;;;;;4.83;3.77;;;;;;;15.33;31.63;100448.28;5107144;28;40453;-74
2021/04/13 08:19:42;;;;;;;4.17;3.17;;;;;;;15.39;31.12;100458.63;5109380;28;41935;-73
2021/04/13 08:22:13;;;;;;;4.40;2.97;;;;;;;14.70;32.25;100445.59;5108916;28;42693;-72
2021/04/13 08:24:43;;;;;;;5.20;3.67;;;;;;;13.99;32.59;100444.00;5110692;27;42861;-72
2021/04/13 08:27:38;;;;;;;3.80;3.40;;;;;;;14.52;33.90;100427.91;5109118;28;39492;-74
2021/04/13 08:30:40;;;;;;;4.33;3.37;;;;;;;17.44;30.00;100458.56;5100850;28;41338;-74
2021/04/13 08:33:19;;;;;;;3.43;3.13;;;;;;;17.63;28.33;100458.25;5110039;28;43106;-74
2021/04/13 08:36:05;;;;;;;3.70;2.50;;;;;;;18.01;27.52;100452.16;5107849;28;42705;-74
2021/04/13 08:38:52;;;;;;;3.10;2.53;;;;;;;17.53;28.62;100449.94;5110864;27;40082;-74
2021/04/13 08:41:43;;;;;;;2.73;2.53;;;;;;;21.35;24.96;100475.50;5090614;28;42122;-74
2021/04/13 08:44:33;;;;;;;2.73;2.17;;;;;;;24.86;22.14;100477.53;5122133;27;42596;-74
2021/04/13 08:47:03;;;;;;;2.47;2.17;;;;;;;24.81;20.57;100490.69;5088995;28;42224;-75
2021/04/13 08:49:53;;;;;;;3.27;2.90;;;;;;;24.58;20.24;100482.91;5096917;28;39864;-75
2021/04/13 08:52:42;;;;;;;4.93;3.87;;;;;;;22.24;21.26;100489.72;5108719;28;42248;-75
2021/04/13 08:55:14;;;;;;;4.40;3.83;;;;;;;22.14;22.34;100474.28;5109364;27;42777;-73
2021/04/13 08:57:44;;;;;;;5.23;3.57;;;;;;;22.82;22.71;100462.09;5109855;28;42114;-73
2021/04/13 09:00:44;;;;;;;4.30;3.90;;;;;;;23.52;22.12;100471.19;5109511;28;39321;-74
2021/04/13 09:03:15;;;;;;;3.40;3.10;;;;;;;23.86;21.15;100469.81;5111090;27;40461;-74
2021/04/13 09:05:44;;;;;;;4.23;3.93;;;;;;;24.18;21.07;100472.25;5110640;27;43368;-74
2021/04/13 09:08:28;;;;;;;4.13;3.47;;;;;;;25.75;19.80;100476.00;5110444;27;42617;-76
2021/04/13 09:11:16;;;;;;;4.13;3.80;;;;;;;26.29;19.35;100485.03;5108311;28;40661;-76
2021/04/13 09:13:51;;;;;;;3.93;3.63;;;;;;;26.74;18.86;100473.97;5111903;27;41487;-76
2021/04/13 09:16:24;;;;;;;3.90;3.60;;;;;;;27.26;18.82;100479.38;5109787;28;42604;-75
2021/04/13 09:18:55;;;;;;;4.77;4.10;;;;;;;27.24;18.06;100493.16;5112324;27;42179;-75
2021/04/13 09:21:34;;;;;;;5.10;4.70;;;;;;;25.63;18.75;100485.38;5112181;27;40161;-75
2021/04/13 09:24:09;;;;;;;5.47;4.80;;;;;;;23.93;19.91;100478.22;5109500;28;41657;-73
2021/04/13 09:26:44;;;;;;;4.83;4.43;;;;;;;22.18;21.00;100469.50;5109004;28;42587;-76
2021/04/13 09:29:31;;;;;;;4.10;3.70;;;;;;;20.87;23.13;100453.34;5093158;28;42391;-74
2021/04/13 09:31:58;;;;;;;5.13;4.63;;;;;;;20.92;23.33;100445.75;5109826;27;40020;-74
2021/04/13 09:34:36;;;;;;;5.03;4.17;;;;;;;22.98;21.49;100455.34;5108723;27;41351;-75
2021/04/13 09:37:32;;;;;;;5.10;4.60;;;;;;;22.16;21.01;100460.66;5108139;28;43306;-77
2021/04/13 09:40:24;;;;;;;3.77;3.40;;;;;;;22.33;20.69;100465.47;5106550;27;42219;-74
2021/04/13 09:43:16;;;;;;;4.30;3.90;;;;;;;21.28;21.10;100435.69;5109256;28;40418;-76
2021/04/13 09:45:56;;;;;;;3.40;3.20;;;;;;;20.66;21.15;100465.78;5107479;28;41721;-75
2021/04/13 09:48:55;;;;;;;5.00;4.50;;;;;;;21.17;21.12;100466.16;5110155;27;42653;-74
2021/04/13 09:51:28;;;;;;;3.90;3.60;;;;;;;20.99;21.60;100451.50;5109719;27;42709;-74
2021/04/13 09:54:22;;;;;;;4.30;3.90;;;;;;;20.57;21.14;100445.00;5108779;27;39723;-75
2021/04/13 09:57:53;;;;;;;3.80;3.50;;;;;;;20.39;22.18;100445.47;5094444;28;40560;-75
2021/04/13 10:00:53;;;;;;;5.23;4.20;;;;;;;19.86;22.02;100454.94;5069137;28;42767;-74
2021/04/13 10:03:56;;;;;;;4.43;4.07;;;;;;;19.58;22.67;100440.00;5074498;27;42715;-74
2021/04/13 10:06:29;;;;;;;3.87;3.57;;;;;;;20.38;23.84;100424.91;5109418;27;39770;-74
2021/04/13 10:09:05;;;;;;;3.80;3.50;;;;;;;21.77;20.91;100449.50;5107133;28;41683;-74
2021/04/13 10:12:11;;;;;;;3.17;2.90;;;;;;;23.81;19.60;100449.59;5108982;28;42287;-74
2021/04/13 10:15:11;;;;;;;2.80;2.60;;;;;;;26.25;17.18;100470.03;5107551;28;42503;-74
2021/04/13 10:17:56;;;;;;;2.90;2.40;;;;;;;25.06;17.37;100465.66;5092067;28;39993;-74
2021/04/13 10:20:37;;;;;;;3.30;2.50;;;;;;;27.95;16.29;100457.31;5108986;27;42178;-73
2021/04/13 10:23:33;;;;;;;3.20;2.90;;;;;;;30.88;13.50;100465.91;5088144;28;43623;-73
2021/04/13 10:26:43;;;;;;;4.77;3.03;;;;;;;30.10;14.18;100463.53;5085424;28;42405;-75
2021/04/13 10:29:35;;;;;;;42.53;37.93;;;;;;;28.89;14.48;100460.38;5091502;28;38406;-75
2021/04/13 10:32:33;;;;;;;3.60;3.30;;;;;;;27.79;16.02;100443.69;5107634;28;41261;-74
2021/04/13 10:35:36;;;;;;;2.47;2.27;;;;;;;30.67;13.93;100463.03;5107869;27;43200;-74
2021/04/13 10:38:39;;;;;;;2.57;2.37;;;;;;;31.71;12.90;100462.81;5108994;27;43362;-74
2021/04/13 10:41:50;;;;;;;2.20;1.90;;;;;;;29.86;13.04;100464.53;5109147;27;41164;-73
2021/04/13 10:44:36;;;;;;;2.70;2.27;;;;;;;29.24;14.48;100439.09;5082676;28;41782;-74
2021/04/13 10:47:16;;;;;;;2.63;1.93;;;;;;;30.66;13.88;100445.75;5106417;28;42986;-73
2021/04/13 10:50:26;;;;;;;2.30;2.03;;;;;;;31.69;12.44;100444.88;5090237;28;41946;-73
2021/04/13 10:53:20;;;;;;;2.63;2.30;;;;;;;32.92;12.51;100434.38;5090674;28;38942;-76
2021/04/13 10:55:57;;;;;;;2.20;1.90;;;;;;;33.24;11.74;100448.53;5108413;27;41540;-75
2021/04/13 10:58:53;;;;;;;2.80;2.30;;;;;;;30.45;12.14;100448.34;5109170;27;42534;-75
2021/04/13 11:02:02;;;;;;;2.43;2.13;;;;;;;29.83;13.75;100431.25;5108274;27;42708;-74
2021/04/13 11:05:07;;;;;;;3.40;1.80;;;;;;;30.01;13.07;100429.09;5107856;28;39348;-74
2021/04/13 11:08:11;;;;;;;2.10;2.00;;;;;;;30.42;12.64;100426.00;5107668;28;40773;-74
2021/04/13 11:11:07;;;;;;;2.80;1.90;;;;;;;30.79;11.59;100436.06;5084565;27;43452;-74
2021/04/13 11:14:23;;;;;;;1.90;1.80;;;;;;;31.90;11.64;100435.84;5090933;28;41088;-75
2021/04/13 11:17:35;;;;;;;1.73;1.63;;;;;;;33.43;11.51;100437.59;5107891;27;39879;-75
2021/04/13 11:20:18;;;;;;;2.17;1.97;;;;;;;34.37;11.34;100439.53;5107221;27;42316;-74
2021/04/13 11:23:08;;;;;;;2.80;2.53;;;;;;;34.49;10.44;100438.69;5106647;27;43179;-73
2021/04/13 11:26:03;;;;;;;3.03;1.93;;;;;;;33.95;10.82;100425.09;5089645;28;42617;-74
2021/04/13 11:29:01;;;;;;;2.43;2.03;;;;;;;31.53;11.30;100424.00;5107159;27;39904;-74
2021/04/13 11:31:57;;;;;;;1.40;1.30;;;;;;;29.94;11.96;100417.16;5106972;28;42255;-75
2021/04/13 11:34:53;;;;;;;2.20;1.70;;;;;;;28.87;13.85;100402.41;5105488;28;43629;-74
2021/04/13 11:37:33;;;;;;;3.53;1.90;;;;;;;28.46;12.84;100403.50;5107818;27;42290;-73
2021/04/13 11:40:28;;;;;;;2.97;1.53;;;;;;;28.59;13.39;100395.63;5107701;27;39647;-75
2021/04/13 11:42:57;;;;;;;3.20;1.63;;;;;;;30.33;13.00;100389.69;5098608;28;40721;-74
2021/04/13 11:45:40;;;;;;;2.17;1.97;;;;;;;31.75;12.54;100390.16;5106210;28;43277;-74
2021/04/13 11:48:21;;;;;;;1.73;1.20;;;;;;;32.04;11.96;100396.53;5108254;27;42039;-74
2021/04/13 11:50:59;;;;;;;1.67;1.57;;;;;;;30.19;12.56;100394.09;5106546;27;39556;-75
2021/04/13 11:53:31;;;;;;;2.43;1.57;;;;;;;28.22;13.13;100399.78;5108328;27;41631;-74
2021/04/13 11:55:59;;;;;;;1.80;1.27;;;;;;;26.54;14.08;100399.97;5105583;28;43390;-74
2021/04/13 11:58:31;;;;;;;1.70;1.50;;;;;;;25.96;14.28;100392.41;5106070;28;42224;-73
2021/04/13 12:01:31;;;;;;;1.67;1.30;;;;;;;28.02;15.06;100373.91;5107531;27;39710;-75
2021/04/13 12:04:03;;;;;;;1.83;1.20;;;;;;;30.39;13.15;100371.69;5107144;27;41824;-75
2021/04/13 12:06:58;;;;;;;2.10;1.50;;;;;;;31.98;12.30;100391.84;5105704;28;42548;-74
2021/04/13 12:09:47;;;;;;;1.10;1.03;;;;;;;31.08;11.98;100390.38;5106806;27;42929;-74
2021/04/13 12:12:45;;;;;;;1.87;0.93;;;;;;;28.51;12.53;100395.66;5107888;27;41408;-73